sensor_id;sensor_type;location;lat;lon;timestamp;pressure;altitude;pressure_sealevel;temperature;humidity
34921;BME280;21128;50.016;20.002;2023-06-04T00:02:23;99350.42;;;10.08;61.63
34921;BME280;21128;50.016;20.002;2023-06-04T00:04:51;99343.64;;;10.06;61.83
34921;BME280;21128;50.016;20.002;2023-06-04T00:07:18;99340.45;;;10.02;62.21
34921;BME280;21128;50.016;20.002;2023-06-04T00:09:45;99336.39;;;9.98;62.49
34921;BME280;21128;50.016;20.002;2023-06-04T00:12:14;99337.48;;;9.96;63.04
34921;BME280;21128;50.016;20.002;2023-06-04T00:14:41;99337.75;;;9.93;63.49
34921;BME280;21128;50.016;20.002;2023-06-04T00:17:09;99334.39;;;9.91;62.94
34921;BME280;21128;50.016;20.002;2023-06-04T00:19:40;99334.19;;;9.82;63.99
34921;BME280;21128;50.016;20.002;2023-06-04T00:22:08;99328.63;;;9.76;63.82
34921;BME280;21128;50.016;20.002;2023-06-04T00:24:37;99327.06;;;9.73;63.87
34921;BME280;21128;50.016;20.002;2023-06-04T00:27:06;99321.25;;;9.70;64.20
34921;BME280;21128;50.016;20.002;2023-06-04T00:29:34;99324.09;;;9.67;64.55
34921;BME280;21128;50.016;20.002;2023-06-04T00:32:02;99323.27;;;9.66;64.69
34921;BME280;21128;50.016;20.002;2023-06-04T00:34:29;99315.66;;;9.63;64.89
34921;BME280;21128;50.016;20.002;2023-06-04T00:36:56;99322.83;;;9.61;65.09
34921;BME280;21128;50.016;20.002;2023-06-04T00:39:23;99315.18;;;9.58;65.21
34921;BME280;21128;50.016;20.002;2023-06-04T00:41:49;99315.44;;;9.55;65.00
34921;BME280;21128;50.016;20.002;2023-06-04T00:44:16;99318.32;;;9.52;65.21
34921;BME280;21128;50.016;20.002;2023-06-04T00:46:44;99304.73;;;9.47;65.51
34921;BME280;21128;50.016;20.002;2023-06-04T00:49:12;99306.17;;;9.40;65.73
34921;BME280;21128;50.016;20.002;2023-06-04T00:51:39;99299.66;;;9.34;66.24
34921;BME280;21128;50.016;20.002;2023-06-04T00:54:07;99305.38;;;9.28;66.10
34921;BME280;21128;50.016;20.002;2023-06-04T00:56:36;99313.50;;;9.25;66.11
34921;BME280;21128;50.016;20.002;2023-06-04T00:59:07;99312.19;;;9.19;66.73
34921;BME280;21128;50.016;20.002;2023-06-04T01:04:42;99314.33;;;9.14;66.47
34921;BME280;21128;50.016;20.002;2023-06-04T01:07:11;99309.47;;;9.10;66.77
34921;BME280;21128;50.016;20.002;2023-06-04T01:09:40;99305.28;;;9.07;66.71
34921;BME280;21128;50.016;20.002;2023-06-04T01:12:07;99307.33;;;9.03;67.41
34921;BME280;21128;50.016;20.002;2023-06-04T01:14:35;99319.59;;;9.03;67.59
34921;BME280;21128;50.016;20.002;2023-06-04T01:17:26;99317.23;;;9.00;67.38
34921;BME280;21128;50.016;20.002;2023-06-04T01:20:31;99321.73;;;8.98;67.95
34921;BME280;21128;50.016;20.002;2023-06-04T01:26:10;99311.02;;;8.90;68.10
34921;BME280;21128;50.016;20.002;2023-06-04T01:28:37;99313.77;;;8.88;67.73
34921;BME280;21128;50.016;20.002;2023-06-04T01:31:05;99313.05;;;8.86;68.20
34921;BME280;21128;50.016;20.002;2023-06-04T01:33:35;99309.73;;;8.84;67.70
34921;BME280;21128;50.016;20.002;2023-06-04T01:36:02;99306.28;;;8.84;67.28
34921;BME280;21128;50.016;20.002;2023-06-04T01:38:29;99315.31;;;8.80;67.96
34921;BME280;21128;50.016;20.002;2023-06-04T01:40:57;99317.35;;;8.76;68.40
34921;BME280;21128;50.016;20.002;2023-06-04T01:43:28;99309.70;;;8.73;67.66
34921;BME280;21128;50.016;20.002;2023-06-04T01:45:55;99307.34;;;8.70;67.73
34921;BME280;21128;50.016;20.002;2023-06-04T01:48:23;99319.85;;;8.66;68.64
34921;BME280;21128;50.016;20.002;2023-06-04T01:50:50;99312.33;;;8.62;68.78
34921;BME280;21128;50.016;20.002;2023-06-04T01:53:17;99317.08;;;8.57;69.29
34921;BME280;21128;50.016;20.002;2023-06-04T01:55:44;99312.21;;;8.52;68.91
34921;BME280;21128;50.016;20.002;2023-06-04T01:58:11;99319.36;;;8.50;68.96
34921;BME280;21128;50.016;20.002;2023-06-04T02:00:38;99312.67;;;8.46;68.83
34921;BME280;21128;50.016;20.002;2023-06-04T02:03:05;99312.91;;;8.43;69.79
34921;BME280;21128;50.016;20.002;2023-06-04T02:05:32;99307.52;;;8.33;69.52
34921;BME280;21128;50.016;20.002;2023-06-04T02:07:59;99306.31;;;8.26;69.57
34921;BME280;21128;50.016;20.002;2023-06-04T02:10:28;99301.52;;;8.20;69.76
34921;BME280;21128;50.016;20.002;2023-06-04T02:12:56;99302.81;;;8.14;70.30
34921;BME280;21128;50.016;20.002;2023-06-04T02:15:25;99303.05;;;8.11;70.12
34921;BME280;21128;50.016;20.002;2023-06-04T02:18:17;99299.02;;;8.07;70.58
34921;BME280;21128;50.016;20.002;2023-06-04T02:20:45;99301.84;;;8.04;70.53
34921;BME280;21128;50.016;20.002;2023-06-04T02:23:14;99307.31;;;8.01;71.21
34921;BME280;21128;50.016;20.002;2023-06-04T02:25:42;99301.45;;;7.98;71.28
34921;BME280;21128;50.016;20.002;2023-06-04T02:28:12;99304.19;;;7.96;71.12
34921;BME280;21128;50.016;20.002;2023-06-04T02:30:39;99303.48;;;7.94;71.98
34921;BME280;21128;50.016;20.002;2023-06-04T02:33:07;99300.27;;;7.90;72.32
34921;BME280;21128;50.016;20.002;2023-06-04T02:35:36;99309.88;;;7.90;72.03
34921;BME280;21128;50.016;20.002;2023-06-04T02:38:04;99317.72;;;7.90;72.45
34921;BME280;21128;50.016;20.002;2023-06-04T02:40:32;99316.80;;;7.91;72.70
34921;BME280;21128;50.016;20.002;2023-06-04T02:42:59;99311.77;;;7.88;72.98
34921;BME280;21128;50.016;20.002;2023-06-04T02:45:26;99310.94;;;7.87;72.44
34921;BME280;21128;50.016;20.002;2023-06-04T02:47:53;99306.55;;;7.88;72.41
34921;BME280;21128;50.016;20.002;2023-06-04T02:50:20;99310.11;;;7.87;72.54
34921;BME280;21128;50.016;20.002;2023-06-04T02:52:47;99311.77;;;7.88;72.78
34921;BME280;21128;50.016;20.002;2023-06-04T02:55:14;99309.88;;;7.90;73.29
34921;BME280;21128;50.016;20.002;2023-06-04T02:57:41;99311.33;;;7.94;73.53
34921;BME280;21128;50.016;20.002;2023-06-04T03:00:13;99301.58;;;7.96;73.75
34921;BME280;21128;50.016;20.002;2023-06-04T03:05:09;99308.59;;;7.96;73.50
34921;BME280;21128;50.016;20.002;2023-06-04T03:07:37;99314.78;;;7.95;73.57
34921;BME280;21128;50.016;20.002;2023-06-04T03:10:05;99309.55;;;7.95;74.14
34921;BME280;21128;50.016;20.002;2023-06-04T03:12:32;99309.30;;;7.98;74.00
34921;BME280;21128;50.016;20.002;2023-06-04T03:14:59;99307.52;;;7.98;73.43
34921;BME280;21128;50.016;20.002;2023-06-04T03:17:26;99310.88;;;8.00;74.04
34921;BME280;21128;50.016;20.002;2023-06-04T03:19:53;99315.05;;;8.03;73.93
34921;BME280;21128;50.016;20.002;2023-06-04T03:22:22;99312.09;;;8.07;73.81
34921;BME280;21128;50.016;20.002;2023-06-04T03:24:50;99309.83;;;8.14;74.11
34921;BME280;21128;50.016;20.002;2023-06-04T03:27:19;99315.57;;;8.19;74.20
34921;BME280;21128;50.016;20.002;2023-06-04T03:29:46;99319.52;;;8.25;73.55
34921;BME280;21128;50.016;20.002;2023-06-04T03:32:14;99321.89;;;8.28;73.50
34921;BME280;21128;50.016;20.002;2023-06-04T03:34:43;99323.22;;;8.33;73.62
34921;BME280;21128;50.016;20.002;2023-06-04T03:37:10;99324.44;;;8.40;74.13
34921;BME280;21128;50.016;20.002;2023-06-04T03:39:37;99328.14;;;8.49;73.61
34921;BME280;21128;50.016;20.002;2023-06-04T03:42:04;99336.25;;;8.57;74.28
34921;BME280;21128;50.016;20.002;2023-06-04T03:44:32;99340.69;;;8.68;73.81
34921;BME280;21128;50.016;20.002;2023-06-04T03:46:59;99340.80;;;8.78;73.66
34921;BME280;21128;50.016;20.002;2023-06-04T03:49:26;99333.31;;;8.84;73.35
34921;BME280;21128;50.016;20.002;2023-06-04T03:51:53;99335.44;;;8.90;73.42
34921;BME280;21128;50.016;20.002;2023-06-04T03:54:21;99328.19;;;8.94;73.01
34921;BME280;21128;50.016;20.002;2023-06-04T03:56:48;99334.72;;;8.99;72.34
34921;BME280;21128;50.016;20.002;2023-06-04T03:59:15;99336.03;;;9.05;73.03
34921;BME280;21128;50.016;20.002;2023-06-04T04:01:43;99332.11;;;9.11;72.62
34921;BME280;21128;50.016;20.002;2023-06-04T04:04:10;99326.27;;;9.18;73.02
34921;BME280;21128;50.016;20.002;2023-06-04T04:06:37;99332.44;;;9.28;72.89
34921;BME280;21128;50.016;20.002;2023-06-04T04:09:04;99331.83;;;9.36;72.19
34921;BME280;21128;50.016;20.002;2023-06-04T04:11:33;99325.72;;;9.47;72.40
34921;BME280;21128;50.016;20.002;2023-06-04T04:14:00;99331.31;;;9.53;72.18
34921;BME280;21128;50.016;20.002;2023-06-04T04:16:27;99329.65;;;9.52;71.87
34921;BME280;21128;50.016;20.002;2023-06-04T04:18:54;99326.54;;;9.58;71.86
34921;BME280;21128;50.016;20.002;2023-06-04T04:21:22;99329.48;;;9.65;71.46
34921;BME280;21128;50.016;20.002;2023-06-04T04:23:50;99323.73;;;9.71;71.40
34921;BME280;21128;50.016;20.002;2023-06-04T04:26:18;99327.27;;;9.81;71.25
34921;BME280;21128;50.016;20.002;2023-06-04T04:28:46;99322.00;;;9.93;71.45
34921;BME280;21128;50.016;20.002;2023-06-04T04:31:13;99324.30;;;10.07;71.13
34921;BME280;21128;50.016;20.002;2023-06-04T04:33:41;99320.70;;;10.08;70.69
34921;BME280;21128;50.016;20.002;2023-06-04T04:36:08;99320.20;;;10.14;71.06
34921;BME280;21128;50.016;20.002;2023-06-04T04:38:39;99320.08;;;10.15;70.25
34921;BME280;21128;50.016;20.002;2023-06-04T04:41:07;99319.94;;;10.17;69.94
34921;BME280;21128;50.016;20.002;2023-06-04T04:43:36;99319.23;;;10.26;70.08
34921;BME280;21128;50.016;20.002;2023-06-04T04:46:06;99315.24;;;10.32;70.24
34921;BME280;21128;50.016;20.002;2023-06-04T04:48:33;99317.09;;;10.41;69.91
34921;BME280;21128;50.016;20.002;2023-06-04T04:51:00;99314.47;;;10.41;69.23
34921;BME280;21128;50.016;20.002;2023-06-04T04:53:28;99314.92;;;10.46;69.16
34921;BME280;21128;50.016;20.002;2023-06-04T04:55:54;99321.14;;;10.45;69.00
34921;BME280;21128;50.016;20.002;2023-06-04T04:58:21;99321.70;;;10.49;68.80
34921;BME280;21128;50.016;20.002;2023-06-04T05:00:49;99325.98;;;10.50;68.99
34921;BME280;21128;50.016;20.002;2023-06-04T05:03:16;99324.65;;;10.55;68.42
34921;BME280;21128;50.016;20.002;2023-06-04T05:05:43;99329.77;;;10.57;68.31
34921;BME280;21128;50.016;20.002;2023-06-04T05:08:11;99335.20;;;10.65;68.51
34921;BME280;21128;50.016;20.002;2023-06-04T05:10:38;99334.56;;;10.73;68.51
34921;BME280;21128;50.016;20.002;2023-06-04T05:13:05;99336.71;;;10.88;68.54
34921;BME280;21128;50.016;20.002;2023-06-04T05:15:32;99345.50;;;11.08;68.50
34921;BME280;21128;50.016;20.002;2023-06-04T05:18:00;99337.53;;;11.19;67.90
34921;BME280;21128;50.016;20.002;2023-06-04T05:20:30;99343.64;;;11.30;67.44
34921;BME280;21128;50.016;20.002;2023-06-04T05:22:57;99344.92;;;11.35;67.30
34921;BME280;21128;50.016;20.002;2023-06-04T05:25:25;99335.48;;;11.42;67.20
34921;BME280;21128;50.016;20.002;2023-06-04T05:27:53;99340.23;;;11.58;67.35
34921;BME280;21128;50.016;20.002;2023-06-04T05:30:21;99345.94;;;11.73;67.14
34921;BME280;21128;50.016;20.002;2023-06-04T05:32:48;99345.98;;;11.82;66.25
34921;BME280;21128;50.016;20.002;2023-06-04T05:35:17;99341.28;;;11.96;65.92
34921;BME280;21128;50.016;20.002;2023-06-04T05:37:44;99349.72;;;11.99;66.24
34921;BME280;21128;50.016;20.002;2023-06-04T05:40:12;99342.53;;;12.11;66.13
34921;BME280;21128;50.016;20.002;2023-06-04T05:42:40;99338.08;;;12.21;65.42
34921;BME280;21128;50.016;20.002;2023-06-04T05:45:08;99341.00;;;12.28;65.12
34921;BME280;21128;50.016;20.002;2023-06-04T05:47:36;99335.85;;;12.36;65.10
34921;BME280;21128;50.016;20.002;2023-06-04T05:50:04;99345.66;;;12.44;65.10
34921;BME280;21128;50.016;20.002;2023-06-04T05:52:33;99343.02;;;12.44;64.24
34921;BME280;21128;50.016;20.002;2023-06-04T05:55:04;99335.95;;;12.44;63.90
34921;BME280;21128;50.016;20.002;2023-06-04T05:57:34;99339.42;;;12.54;64.58
34921;BME280;21128;50.016;20.002;2023-06-04T06:00:02;99343.80;;;12.73;64.89
34921;BME280;21128;50.016;20.002;2023-06-04T06:02:29;99344.70;;;12.91;64.50
34921;BME280;21128;50.016;20.002;2023-06-04T06:04:58;99346.63;;;12.99;63.65
34921;BME280;21128;50.016;20.002;2023-06-04T06:07:25;99347.03;;;13.04;62.88
34921;BME280;21128;50.016;20.002;2023-06-04T06:09:52;99350.05;;;13.09;62.35
34921;BME280;21128;50.016;20.002;2023-06-04T06:12:19;99344.05;;;13.17;62.59
34921;BME280;21128;50.016;20.002;2023-06-04T06:14:46;99350.69;;;13.31;62.33
34921;BME280;21128;50.016;20.002;2023-06-04T06:17:13;99346.17;;;13.41;61.74
34921;BME280;21128;50.016;20.002;2023-06-04T06:19:40;99353.94;;;13.42;61.24
34921;BME280;21128;50.016;20.002;2023-06-04T06:22:07;99344.37;;;13.41;61.19
34921;BME280;21128;50.016;20.002;2023-06-04T06:24:34;99351.09;;;13.53;61.59
34921;BME280;21128;50.016;20.002;2023-06-04T06:27:01;99345.77;;;13.63;61.35
34921;BME280;21128;50.016;20.002;2023-06-04T06:29:28;99343.30;;;13.79;60.72
34921;BME280;21128;50.016;20.002;2023-06-04T06:31:55;99344.80;;;14.00;60.52
34921;BME280;21128;50.016;20.002;2023-06-04T06:34:23;99347.20;;;14.11;60.55
34921;BME280;21128;50.016;20.002;2023-06-04T06:36:50;99351.56;;;14.20;60.25
34921;BME280;21128;50.016;20.002;2023-06-04T06:39:17;99353.67;;;14.34;60.04
34921;BME280;21128;50.016;20.002;2023-06-04T06:41:45;99347.09;;;14.56;59.89
34921;BME280;21128;50.016;20.002;2023-06-04T06:44:12;99347.50;;;14.70;59.49
34921;BME280;21128;50.016;20.002;2023-06-04T06:46:39;99347.34;;;14.71;58.76
34921;BME280;21128;50.016;20.002;2023-06-04T06:49:06;99346.72;;;14.77;58.59
34921;BME280;21128;50.016;20.002;2023-06-04T06:51:33;99343.78;;;14.80;57.86
34921;BME280;21128;50.016;20.002;2023-06-04T06:54:00;99351.56;;;14.82;57.78
34921;BME280;21128;50.016;20.002;2023-06-04T06:56:27;99353.72;;;14.86;57.87
34921;BME280;21128;50.016;20.002;2023-06-04T06:58:54;99352.64;;;14.97;57.61
34921;BME280;21128;50.016;20.002;2023-06-04T07:01:21;99351.48;;;15.00;57.32
34921;BME280;21128;50.016;20.002;2023-06-04T07:03:48;99354.01;;;15.09;57.14
34921;BME280;21128;50.016;20.002;2023-06-04T07:06:16;99350.24;;;15.20;56.93
34921;BME280;21128;50.016;20.002;2023-06-04T07:08:43;99345.52;;;15.32;56.69
34921;BME280;21128;50.016;20.002;2023-06-04T07:11:10;99349.98;;;15.31;56.13
34921;BME280;21128;50.016;20.002;2023-06-04T07:13:40;99352.95;;;15.36;55.95
34921;BME280;21128;50.016;20.002;2023-06-04T07:16:07;99349.34;;;15.45;55.91
34921;BME280;21128;50.016;20.002;2023-06-04T07:18:34;99350.55;;;15.59;55.50
34921;BME280;21128;50.016;20.002;2023-06-04T07:21:01;99346.80;;;15.70;55.28
34921;BME280;21128;50.016;20.002;2023-06-04T07:23:28;99346.17;;;15.84;55.11
34921;BME280;21128;50.016;20.002;2023-06-04T07:25:56;99341.20;;;15.97;54.93
34921;BME280;21128;50.016;20.002;2023-06-04T07:28:23;99340.24;;;16.07;54.57
34921;BME280;21128;50.016;20.002;2023-06-04T07:30:50;99341.90;;;16.16;54.74
34921;BME280;21128;50.016;20.002;2023-06-04T07:33:17;99340.73;;;16.26;54.44
34921;BME280;21128;50.016;20.002;2023-06-04T07:35:44;99343.38;;;16.35;53.87
34921;BME280;21128;50.016;20.002;2023-06-04T07:38:11;99344.69;;;16.39;52.99
34921;BME280;21128;50.016;20.002;2023-06-04T07:40:38;99344.20;;;16.43;53.00
34921;BME280;21128;50.016;20.002;2023-06-04T07:43:05;99344.19;;;16.51;52.52
34921;BME280;21128;50.016;20.002;2023-06-04T07:45:32;99339.05;;;16.58;52.35
34921;BME280;21128;50.016;20.002;2023-06-04T07:47:59;99343.83;;;16.63;51.22
34921;BME280;21128;50.016;20.002;2023-06-04T07:50:26;99341.85;;;16.73;52.00
34921;BME280;21128;50.016;20.002;2023-06-04T07:52:53;99341.16;;;16.87;51.44
34921;BME280;21128;50.016;20.002;2023-06-04T07:55:20;99336.16;;;17.00;51.92
34921;BME280;21128;50.016;20.002;2023-06-04T07:57:47;99332.77;;;17.14;50.79
34921;BME280;21128;50.016;20.002;2023-06-04T08:00:14;99338.37;;;17.28;50.14
34921;BME280;21128;50.016;20.002;2023-06-04T08:02:41;99335.50;;;17.37;49.47
34921;BME280;21128;50.016;20.002;2023-06-04T08:05:08;99335.46;;;17.45;49.05
34921;BME280;21128;50.016;20.002;2023-06-04T08:07:36;99337.56;;;17.58;48.81
34921;BME280;21128;50.016;20.002;2023-06-04T08:10:03;99339.66;;;17.71;49.92
34921;BME280;21128;50.016;20.002;2023-06-04T08:12:30;99340.52;;;17.94;49.75
34921;BME280;21128;50.016;20.002;2023-06-04T08:14:57;99339.91;;;18.07;48.18
34921;BME280;21128;50.016;20.002;2023-06-04T08:17:24;99337.55;;;18.12;46.74
34921;BME280;21128;50.016;20.002;2023-06-04T08:19:51;99335.08;;;18.11;46.25
34921;BME280;21128;50.016;20.002;2023-06-04T08:22:18;99337.03;;;18.17;45.85
34921;BME280;21128;50.016;20.002;2023-06-04T08:24:45;99340.72;;;18.31;47.11
34921;BME280;21128;50.016;20.002;2023-06-04T08:27:12;99345.45;;;18.43;45.44
34921;BME280;21128;50.016;20.002;2023-06-04T08:29:39;99344.25;;;18.46;45.34
34921;BME280;21128;50.016;20.002;2023-06-04T08:32:07;99347.77;;;18.61;45.88
34921;BME280;21128;50.016;20.002;2023-06-04T08:34:34;99348.92;;;18.67;44.49
34921;BME280;21128;50.016;20.002;2023-06-04T08:37:01;99343.97;;;18.78;44.97
34921;BME280;21128;50.016;20.002;2023-06-04T08:39:28;99348.38;;;18.86;43.98
34921;BME280;21128;50.016;20.002;2023-06-04T08:42:04;99340.50;;;18.93;43.22
34921;BME280;21128;50.016;20.002;2023-06-04T08:44:34;99338.73;;;19.00;43.23
34921;BME280;21128;50.016;20.002;2023-06-04T08:47:03;99346.72;;;19.15;43.18
34921;BME280;21128;50.016;20.002;2023-06-04T08:49:35;99337.32;;;19.33;42.27
34921;BME280;21128;50.016;20.002;2023-06-04T08:52:03;99346.89;;;19.43;41.32
34921;BME280;21128;50.016;20.002;2023-06-04T08:54:32;99337.69;;;19.60;42.30
34921;BME280;21128;50.016;20.002;2023-06-04T08:57:00;99343.23;;;19.80;41.23
34921;BME280;21128;50.016;20.002;2023-06-04T08:59:27;99340.45;;;19.88;40.12
34921;BME280;21128;50.016;20.002;2023-06-04T09:01:55;99334.98;;;19.96;39.45
34921;BME280;21128;50.016;20.002;2023-06-04T09:04:23;99336.08;;;20.02;40.10
34921;BME280;21128;50.016;20.002;2023-06-04T09:06:52;99338.33;;;20.26;39.89
34921;BME280;21128;50.016;20.002;2023-06-04T09:09:21;99331.66;;;20.37;39.34
34921;BME280;21128;50.016;20.002;2023-06-04T09:11:55;99341.52;;;20.36;38.89
34921;BME280;21128;50.016;20.002;2023-06-04T09:14:22;99336.07;;;20.44;39.08
34921;BME280;21128;50.016;20.002;2023-06-04T09:16:51;99334.16;;;20.66;38.92
34921;BME280;21128;50.016;20.002;2023-06-04T09:19:19;99328.97;;;20.86;39.21
34921;BME280;21128;50.016;20.002;2023-06-04T09:21:57;99335.64;;;21.03;38.88
34921;BME280;21128;50.016;20.002;2023-06-04T09:24:41;99339.95;;;21.04;38.40
34921;BME280;21128;50.016;20.002;2023-06-04T09:27:10;99340.66;;;21.20;37.77
34921;BME280;21128;50.016;20.002;2023-06-04T09:29:39;99328.39;;;21.32;37.92
34921;BME280;21128;50.016;20.002;2023-06-04T09:32:07;99334.83;;;21.51;37.64
34921;BME280;21128;50.016;20.002;2023-06-04T09:34:34;99337.36;;;21.66;36.30
34921;BME280;21128;50.016;20.002;2023-06-04T09:37:01;99344.17;;;21.75;36.00
34921;BME280;21128;50.016;20.002;2023-06-04T09:39:28;99338.80;;;21.68;34.79
34921;BME280;21128;50.016;20.002;2023-06-04T09:42:02;99335.09;;;21.62;35.41
34921;BME280;21128;50.016;20.002;2023-06-04T09:44:29;99337.77;;;21.62;34.28
34921;BME280;21128;50.016;20.002;2023-06-04T09:46:57;99326.87;;;21.64;35.14
34921;BME280;21128;50.016;20.002;2023-06-04T09:49:24;99340.91;;;21.92;35.45
34921;BME280;21128;50.016;20.002;2023-06-04T09:51:51;99329.87;;;22.15;35.11
34921;BME280;21128;50.016;20.002;2023-06-04T09:54:18;99326.98;;;22.24;34.41
34921;BME280;21128;50.016;20.002;2023-06-04T09:56:45;99335.16;;;22.02;33.99
34921;BME280;21128;50.016;20.002;2023-06-04T09:59:13;99330.65;;;21.96;34.46
34921;BME280;21128;50.016;20.002;2023-06-04T10:01:41;99319.31;;;21.87;33.54
34921;BME280;21128;50.016;20.002;2023-06-04T10:04:09;99319.09;;;21.82;32.98
34921;BME280;21128;50.016;20.002;2023-06-04T10:06:39;99322.81;;;21.88;33.35
34921;BME280;21128;50.016;20.002;2023-06-04T10:09:08;99319.53;;;21.99;33.76
34921;BME280;21128;50.016;20.002;2023-06-04T10:11:40;99319.36;;;22.27;34.02
34921;BME280;21128;50.016;20.002;2023-06-04T10:17:01;99329.02;;;22.81;34.06
34921;BME280;21128;50.016;20.002;2023-06-04T10:19:30;99324.66;;;23.07;33.33
34921;BME280;21128;50.016;20.002;2023-06-04T10:21:58;99329.31;;;23.31;33.37
34921;BME280;21128;50.016;20.002;2023-06-04T10:24:25;99327.43;;;23.38;31.70
34921;BME280;21128;50.016;20.002;2023-06-04T10:26:54;99328.05;;;23.34;32.17
34921;BME280;21128;50.016;20.002;2023-06-04T10:29:23;99323.84;;;23.51;32.17
34921;BME280;21128;50.016;20.002;2023-06-04T10:31:54;99321.36;;;23.56;31.15
34921;BME280;21128;50.016;20.002;2023-06-04T10:34:22;99329.89;;;23.40;31.26
34921;BME280;21128;50.016;20.002;2023-06-04T10:36:49;99322.20;;;23.50;31.48
34921;BME280;21128;50.016;20.002;2023-06-04T10:39:25;99322.53;;;23.73;31.88
34921;BME280;21128;50.016;20.002;2023-06-04T10:42:03;99317.17;;;24.05;31.86
34921;BME280;21128;50.016;20.002;2023-06-04T10:44:31;99312.45;;;24.00;30.67
34921;BME280;21128;50.016;20.002;2023-06-04T10:46:59;99318.55;;;24.14;31.10
34921;BME280;21128;50.016;20.002;2023-06-04T10:49:30;99311.77;;;24.36;30.64
34921;BME280;21128;50.016;20.002;2023-06-04T10:52:09;99322.72;;;24.60;31.04
34921;BME280;21128;50.016;20.002;2023-06-04T10:54:36;99316.33;;;24.79;30.36
34921;BME280;21128;50.016;20.002;2023-06-04T10:57:13;99320.30;;;24.95;30.37
34921;BME280;21128;50.016;20.002;2023-06-04T10:59:40;99317.05;;;25.11;29.72
34921;BME280;21128;50.016;20.002;2023-06-04T11:02:08;99312.03;;;25.33;30.18
34921;BME280;21128;50.016;20.002;2023-06-04T11:04:36;99311.69;;;25.60;30.02
34921;BME280;21128;50.016;20.002;2023-06-04T11:07:07;99311.89;;;25.76;29.92
34921;BME280;21128;50.016;20.002;2023-06-04T11:09:47;99312.97;;;25.87;28.77
34921;BME280;21128;50.016;20.002;2023-06-04T11:12:15;99312.39;;;25.85;28.63
34921;BME280;21128;50.016;20.002;2023-06-04T11:14:54;99306.16;;;25.73;28.60
34921;BME280;21128;50.016;20.002;2023-06-04T11:17:21;99304.55;;;25.35;28.06
34921;BME280;21128;50.016;20.002;2023-06-04T11:19:48;99311.44;;;25.13;28.91
34921;BME280;21128;50.016;20.002;2023-06-04T11:22:15;99304.88;;;25.09;28.72
34921;BME280;21128;50.016;20.002;2023-06-04T11:24:42;99312.19;;;25.20;28.91
34921;BME280;21128;50.016;20.002;2023-06-04T11:27:09;99313.67;;;25.34;29.17
34921;BME280;21128;50.016;20.002;2023-06-04T11:29:36;99315.82;;;25.44;28.39
34921;BME280;21128;50.016;20.002;2023-06-04T11:32:04;99313.28;;;25.49;28.46
34921;BME280;21128;50.016;20.002;2023-06-04T11:34:31;99320.15;;;25.45;28.15
34921;BME280;21128;50.016;20.002;2023-06-04T11:37:09;99320.66;;;25.53;28.36
34921;BME280;21128;50.016;20.002;2023-06-04T11:39:36;99313.05;;;25.50;27.65
34921;BME280;21128;50.016;20.002;2023-06-04T11:42:06;99316.08;;;25.24;28.63
34921;BME280;21128;50.016;20.002;2023-06-04T11:44:34;99321.59;;;25.29;27.93
34921;BME280;21128;50.016;20.002;2023-06-04T11:47:06;99311.58;;;24.99;27.64
34921;BME280;21128;50.016;20.002;2023-06-04T11:49:36;99306.22;;;25.18;28.12
34921;BME280;21128;50.016;20.002;2023-06-04T11:52:03;99299.45;;;25.45;28.74
34921;BME280;21128;50.016;20.002;2023-06-04T11:54:32;99300.55;;;25.74;28.57
34921;BME280;21128;50.016;20.002;2023-06-04T11:57:05;99298.02;;;25.91;27.88
34921;BME280;21128;50.016;20.002;2023-06-04T11:59:33;99301.09;;;26.06;27.98
34921;BME280;21128;50.016;20.002;2023-06-04T12:02:01;99298.52;;;26.23;27.73
34921;BME280;21128;50.016;20.002;2023-06-04T12:04:30;99295.24;;;26.21;28.21
34921;BME280;21128;50.016;20.002;2023-06-04T12:06:59;99291.24;;;26.00;27.72
34921;BME280;21128;50.016;20.002;2023-06-04T12:09:30;99295.48;;;26.08;28.31
34921;BME280;21128;50.016;20.002;2023-06-04T12:12:08;99291.39;;;26.29;28.21
34921;BME280;21128;50.016;20.002;2023-06-04T12:14:35;99293.16;;;26.35;27.53
34921;BME280;21128;50.016;20.002;2023-06-04T12:17:06;99292.20;;;26.18;27.16
34921;BME280;21128;50.016;20.002;2023-06-04T12:19:49;99296.54;;;26.19;27.84
34921;BME280;21128;50.016;20.002;2023-06-04T12:22:16;99285.86;;;26.00;26.79
34921;BME280;21128;50.016;20.002;2023-06-04T12:24:51;99294.98;;;25.69;27.41
34921;BME280;21128;50.016;20.002;2023-06-04T12:27:25;99287.87;;;25.45;27.33
34921;BME280;21128;50.016;20.002;2023-06-04T12:32:27;99292.97;;;25.35;27.66
34921;BME280;21128;50.016;20.002;2023-06-04T12:34:55;99287.95;;;25.38;27.72
34921;BME280;21128;50.016;20.002;2023-06-04T12:37:23;99284.63;;;25.54;28.22
34921;BME280;21128;50.016;20.002;2023-06-04T12:39:52;99285.56;;;25.78;27.37
34921;BME280;21128;50.016;20.002;2023-06-04T12:42:19;99279.30;;;25.66;27.28
34921;BME280;21128;50.016;20.002;2023-06-04T12:44:47;99276.52;;;25.43;26.12
34921;BME280;21128;50.016;20.002;2023-06-04T12:47:14;99281.73;;;25.08;27.01
34921;BME280;21128;50.016;20.002;2023-06-04T12:49:44;99286.98;;;24.96;27.69
34921;BME280;21128;50.016;20.002;2023-06-04T12:52:12;99289.02;;;24.64;27.37
34921;BME280;21128;50.016;20.002;2023-06-04T12:54:43;99279.12;;;24.39;27.57
34921;BME280;21128;50.016;20.002;2023-06-04T12:57:10;99276.11;;;24.73;28.20
34921;BME280;21128;50.016;20.002;2023-06-04T12:59:37;99280.89;;;25.25;28.05
34921;BME280;21128;50.016;20.002;2023-06-04T13:02:04;99286.70;;;25.71;28.34
34921;BME280;21128;50.016;20.002;2023-06-04T13:04:32;99286.58;;;26.07;27.90
34921;BME280;21128;50.016;20.002;2023-06-04T13:06:59;99287.33;;;26.38;28.12
34921;BME280;21128;50.016;20.002;2023-06-04T13:09:27;99277.03;;;26.58;27.84
34921;BME280;21128;50.016;20.002;2023-06-04T13:11:58;99282.64;;;26.69;27.55
34921;BME280;21128;50.016;20.002;2023-06-04T13:14:26;99273.70;;;26.80;27.25